Malcolm Mc Kinnon Airport Brunswick US
ICAO: KSSI
IATA: SSI
Category: Medium
Scheduled Services: No

Elevation: 19 ft
TransAlt. 18000 ft.

Airport Communications:
ASOS:118.525
JACKSONVILLE CNTR:126.75
CTAF/UNICOM:123.05

KSSI Zoom In..

Runways:

(A) RW 04 length 5584 ft width 100 ft
---- / hdg 41

(B) RW 16 length 3313 ft width 75 ft
---- / hdg 159

(C) RW 22 length 5584 ft width 100 ft
---- / hdg 221

(D) RW 34 length 3313 ft width 75 ft
---- / hdg 339

Location; KSSI
Day. 21 / Time. 05.53 Zulu
* Altimeter: 29.93
* Temperature: 26° c. 78.8°f.
* Wind from: 260° Speed 07 kn.
Dewpoint: 23° c.
Visibility: 10 Statute Miles.
Clouds: Clear (automated report).

KSSI 210553Z AUTO 26007KT 10SM CLR 26/23 A2993 RMK AO2 SLP136 T02560228 10267 20250 52006


Wind From 260°
Speed 07 kn.

 
 
jpsmedia.com for Web Design worldairports.se 2018   terms of use